Arcadia Highway — 3FQT4 — position and weather

sailwx.info

Track history (hours):
 
Tides and Currents Weather Stations Pressure Air Temp Water Temp Dewpoint Dewpoint Depression Visibility Wind Speed Wind Dir Waves Ship Positions

Arcadia Highway

Last reported at 2016-May-14 11:33 UTC. Time now 2016-May-26 04:44 UTC.
Position N 01°15' E 104°00'.
Warning: this ship's position is 11 days out of date.

Length 179 m; draft 7.4 m.

Type: Cargo ship. MMSI: 354342000.

Date/timePositionNaut miles runAvg speedWind from/ knotsBaromVisibWave heightAir tempDewpointWater temp
2016-May-14 11:33N 01°15' E 104°00'6 6.1
2016-May-14 10:33N 01°16' E 103°54'0 0.3
2016-May-14 09:24N 01°16' E 103°54'0 0.0
2016-May-14 07:30N 01°16' E 103°54'0 0.1
2016-May-14 06:30N 01°16' E 103°54'0 0.0
2016-May-14 04:30N 01°16' E 103°54'0 0.0
2016-May-14 02:26N 01°16' E 103°54'0 0.0
2016-May-14 01:26N 01°16' E 103°54'4 4.9
2016-May-14 00:33N 01°12' E 103°51'8 7.7
2016-May-13 23:33N 01°17' E 103°45'0 0.1
2016-May-13 22:28N 01°17' E 103°45'0 0.0
2016-May-13 21:10N 01°17' E 103°45'0 0.0
2016-May-13 20:16N 01°17' E 103°45'0 0.0
2016-May-13 18:23N 01°17' E 103°45'0 0.0
2016-May-13 17:28N 01°17' E 103°45'2 1.9
2016-May-13 16:33N 01°15' E 103°46'8 7.9
2016-May-13 15:32N 01°12' E 103°39'7 5.7
2016-May-13 14:23N 01°11' E 103°32'66 9.2
2016-May-13 07:15N 01°45' E 102°36'1116.1
2016-May-13 06:33N 01°49' E 102°25'  
Track history (hours):
 
Tides and Currents Weather Stations Pressure Air Temp Water Temp Dewpoint Dewpoint Depression Visibility Wind Speed Wind Dir Waves Ship Positions

Arcadia Highway

Last reported at 2016-May-14 11:33 UTC. Time now 2016-May-26 04:44 UTC.
Position N 01°15' E 104°00'.
Warning: this ship's position is 11 days out of date.

Length 179 m; draft 7.4 m.

Type: Cargo ship. MMSI: 354342000.

Date/timePositionNaut miles runAvg speedWind from/ knotsBaromVisibWave heightAir tempDewpointWater temp
2016-May-14 11:33N 01°15' E 104°00'6 6.1
2016-May-14 10:33N 01°16' E 103°54'0 0.3
2016-May-14 09:24N 01°16' E 103°54'0 0.0
2016-May-14 07:30N 01°16' E 103°54'0 0.1
2016-May-14 06:30N 01°16' E 103°54'0 0.0
2016-May-14 04:30N 01°16' E 103°54'0 0.0
2016-May-14 02:26N 01°16' E 103°54'0 0.0
2016-May-14 01:26N 01°16' E 103°54'4 4.9
2016-May-14 00:33N 01°12' E 103°51'8 7.7
2016-May-13 23:33N 01°17' E 103°45'0 0.1
2016-May-13 22:28N 01°17' E 103°45'0 0.0
2016-May-13 21:10N 01°17' E 103°45'0 0.0
2016-May-13 20:16N 01°17' E 103°45'0 0.0
2016-May-13 18:23N 01°17' E 103°45'0 0.0
2016-May-13 17:28N 01°17' E 103°45'2 1.9
2016-May-13 16:33N 01°15' E 103°46'8 7.9
2016-May-13 15:32N 01°12' E 103°39'7 5.7
2016-May-13 14:23N 01°11' E 103°32'66 9.2
2016-May-13 07:15N 01°45' E 102°36'1116.1
2016-May-13 06:33N 01°49' E 102°25'  

Dump ship's entire track history